Terminal Aerodrome Forecast
Issued by NWS Midland/Odessa, TX

Home | Current Version | Previous Version | Text Only | Print | Product List | Glossary On
Versions: 1 2 3 4 5 6 7 8 9 10 11 12
820
FTUS44 KMAF 221720
TAFMAF
TAF
KMAF 221720Z 2218/2318 15010KT P6SM FEW080
      TEMPO 2222/2301 VRB20G30KT 5SM TSRA BKN050CB
     FM230500 01011KT P6SM SCT040 BKN070
      TEMPO 2305/2309 VRB20G35KT 2SM +TSRA BR BKN015 OVC040CB=

USA.gov is the U.S. government's official web portal to all federal, state and local government web resources and services.